createdAt,value
2022-10-22T00:02:22.269Z,9.19
2022-10-22T00:04:50.169Z,9.17
2022-10-22T00:07:19.138Z,9.21
2022-10-22T00:09:46.494Z,9.21
2022-10-22T00:12:14.982Z,9.28
2022-10-22T00:14:42.880Z,9.21
2022-10-22T00:17:11.594Z,9.21
2022-10-22T00:19:39.638Z,9.20
2022-10-22T00:22:08.042Z,9.18
2022-10-22T00:24:37.926Z,9.16
2022-10-22T00:27:06.387Z,9.21
2022-10-22T00:29:33.808Z,9.21
2022-10-22T00:32:01.076Z,9.14
2022-10-22T00:34:28.764Z,9.15
2022-10-22T00:36:56.170Z,9.14
2022-10-22T00:39:25.102Z,9.11
2022-10-22T00:41:53.711Z,9.13
2022-10-22T00:45:00.772Z,9.07
2022-10-22T00:47:32.045Z,9.03
2022-10-22T00:50:00.579Z,8.99
2022-10-22T00:52:28.605Z,8.94
2022-10-22T00:54:55.704Z,8.90
2022-10-22T00:57:23.073Z,8.85
2022-10-22T00:59:50.111Z,8.84
2022-10-22T01:02:17.443Z,8.84
2022-10-22T01:04:45.176Z,8.83
2022-10-22T01:07:18.884Z,8.78
2022-10-22T01:10:13.451Z,8.72
2022-10-22T01:12:40.566Z,8.73
2022-10-22T01:15:29.633Z,8.70
2022-10-22T01:18:10.956Z,8.71
2022-10-22T01:20:37.743Z,8.70
2022-10-22T01:23:26.625Z,8.61
2022-10-22T01:29:07.504Z,8.62
2022-10-22T01:31:46.787Z,8.67
2022-10-22T01:34:18.452Z,8.63
2022-10-22T01:36:46.995Z,8.65
2022-10-22T01:39:16.464Z,8.61
2022-10-22T01:41:44.884Z,8.60
2022-10-22T01:44:29.857Z,8.52
2022-10-22T01:47:14.157Z,8.47
2022-10-22T01:50:06.725Z,8.48
2022-10-22T01:53:07.198Z,8.60
2022-10-22T01:55:43.690Z,8.53
2022-10-22T01:58:19.499Z,8.49
2022-10-22T02:01:00.696Z,8.48
2022-10-22T02:03:45.576Z,8.45
2022-10-22T02:06:19.121Z,8.38
2022-10-22T02:08:48.948Z,8.34
2022-10-22T02:11:16.820Z,8.30
2022-10-22T02:13:48.427Z,8.28
2022-10-22T02:16:30.585Z,8.25
2022-10-22T02:19:06.181Z,8.24
2022-10-22T02:21:33.120Z,8.18
2022-10-22T02:24:00.666Z,8.23
2022-10-22T02:26:39.991Z,8.19
2022-10-22T02:29:20.421Z,8.12
2022-10-22T02:31:51.444Z,8.09
2022-10-22T02:34:24.302Z,8.04
2022-10-22T02:36:52.568Z,8.07
2022-10-22T02:39:20.953Z,7.99
2022-10-22T02:41:48.519Z,7.99
2022-10-22T02:44:15.269Z,7.96
2022-10-22T02:46:43.681Z,7.92
2022-10-22T02:49:10.464Z,7.89
2022-10-22T02:51:37.371Z,7.80
2022-10-22T02:54:04.491Z,7.72
2022-10-22T02:56:31.490Z,7.77
2022-10-22T02:58:58.241Z,7.71
2022-10-22T03:01:25.311Z,7.69
2022-10-22T03:03:52.162Z,7.60
2022-10-22T03:06:19.247Z,7.58
2022-10-22T03:08:47.018Z,7.69
2022-10-22T03:11:13.803Z,7.58
2022-10-22T03:13:40.814Z,7.62
2022-10-22T03:16:07.732Z,7.55
2022-10-22T03:18:34.562Z,7.61
2022-10-22T03:21:49.074Z,7.68
2022-10-22T03:24:21.822Z,7.57
2022-10-22T03:26:50.502Z,7.58
2022-10-22T03:29:17.672Z,7.56
2022-10-22T03:31:44.490Z,7.66
2022-10-22T03:34:11.234Z,7.62
2022-10-22T03:36:38.684Z,7.65
2022-10-22T03:39:06.415Z,7.59
2022-10-22T03:41:34.071Z,7.66
2022-10-22T03:44:03.060Z,7.52
2022-10-22T03:46:29.935Z,7.57
2022-10-22T03:48:56.987Z,7.38
2022-10-22T03:51:26.157Z,7.34
2022-10-22T03:53:53.056Z,7.46
2022-10-22T03:56:20.063Z,7.65
2022-10-22T03:58:46.917Z,7.80
2022-10-22T04:01:15.000Z,7.78
2022-10-22T04:03:41.806Z,7.40
2022-10-22T04:06:11.087Z,7.28
2022-10-22T04:08:40.285Z,7.27
2022-10-22T04:11:07.734Z,7.31
2022-10-22T04:13:35.086Z,7.47
2022-10-22T04:16:07.880Z,7.60
2022-10-22T04:18:34.775Z,7.40
2022-10-22T04:21:01.989Z,7.27
2022-10-22T04:23:28.867Z,7.25
2022-10-22T04:26:05.208Z,7.13
2022-10-22T04:28:32.341Z,7.02
2022-10-22T04:30:59.088Z,7.12
2022-10-22T04:33:26.027Z,7.21
2022-10-22T04:35:52.826Z,6.94
2022-10-22T04:38:19.711Z,6.98
2022-10-22T04:40:46.543Z,6.89
2022-10-22T04:43:13.351Z,6.87
2022-10-22T04:45:40.150Z,7.11
2022-10-22T04:48:07.237Z,7.05
2022-10-22T04:50:34.167Z,7.08
2022-10-22T04:53:01.760Z,7.26
2022-10-22T04:55:28.462Z,7.19
2022-10-22T04:57:55.223Z,7.17
2022-10-22T05:00:21.973Z,7.29
2022-10-22T05:02:50.070Z,7.25
2022-10-22T05:05:16.970Z,7.25
2022-10-22T05:07:44.036Z,7.34
2022-10-22T05:10:11.010Z,7.47
2022-10-22T05:12:37.810Z,7.54
2022-10-22T05:15:04.824Z,7.39
2022-10-22T05:17:31.583Z,7.41
2022-10-22T05:19:58.375Z,7.46
2022-10-22T05:22:25.269Z,7.44
2022-10-22T05:24:52.059Z,7.37
2022-10-22T05:29:50.496Z,7.36
2022-10-22T05:32:17.359Z,7.34
2022-10-22T05:34:44.143Z,7.49
2022-10-22T05:37:11.183Z,7.62
2022-10-22T05:39:37.924Z,7.50
2022-10-22T05:42:04.924Z,7.60
2022-10-22T05:44:31.699Z,7.68
2022-10-22T05:46:58.566Z,7.78
2022-10-22T05:49:25.333Z,7.77
2022-10-22T05:51:52.155Z,7.72
2022-10-22T05:54:20.764Z,7.68
2022-10-22T05:56:48.185Z,7.66
2022-10-22T05:59:15.415Z,7.72
2022-10-22T06:01:43.177Z,7.75
2022-10-22T06:04:12.388Z,7.85
2022-10-22T06:06:46.635Z,7.83
2022-10-22T06:09:20.263Z,7.84
2022-10-22T06:11:47.917Z,7.89
2022-10-22T06:14:15.318Z,8.01
2022-10-22T06:16:42.105Z,8.07
2022-10-22T06:19:14.050Z,8.11
2022-10-22T06:21:40.817Z,8.15
2022-10-22T06:24:09.278Z,8.18
2022-10-22T06:26:36.056Z,8.20
2022-10-22T06:29:03.273Z,8.26
2022-10-22T06:31:31.152Z,8.32
2022-10-22T06:33:58.039Z,8.36
2022-10-22T06:36:24.906Z,8.45
2022-10-22T06:38:53.741Z,8.48
2022-10-22T06:41:23.038Z,8.50
2022-10-22T06:43:54.187Z,8.55
2022-10-22T06:46:22.285Z,8.60
2022-10-22T06:48:51.496Z,8.66
2022-10-22T06:51:19.304Z,8.72
2022-10-22T06:53:46.121Z,8.79
2022-10-22T06:56:19.878Z,8.92
2022-10-22T06:58:48.176Z,8.97
2022-10-22T07:01:17.269Z,9.05
2022-10-22T07:03:44.100Z,9.09
2022-10-22T07:06:13.493Z,9.17
2022-10-22T07:08:41.584Z,9.24
2022-10-22T07:11:14.504Z,9.25
2022-10-22T07:13:41.649Z,9.29
2022-10-22T07:16:09.763Z,9.32
2022-10-22T07:18:39.026Z,9.31
2022-10-22T07:21:07.051Z,9.35
2022-10-22T07:23:34.364Z,9.39
2022-10-22T07:26:01.699Z,9.42
2022-10-22T07:28:29.037Z,9.44
2022-10-22T07:30:55.839Z,9.49
2022-10-22T07:33:22.661Z,9.52
2022-10-22T07:35:49.403Z,9.57
2022-10-22T07:38:16.244Z,9.61
2022-10-22T07:40:43.171Z,9.63
2022-10-22T07:43:09.977Z,9.69
2022-10-22T07:45:36.845Z,9.75
2022-10-22T07:48:03.803Z,9.85
2022-10-22T07:50:30.647Z,9.95
2022-10-22T07:52:58.331Z,9.99
2022-10-22T07:55:26.093Z,10.03
2022-10-22T07:57:53.223Z,10.10
2022-10-22T08:00:23.057Z,10.10
2022-10-22T08:02:52.240Z,10.10
2022-10-22T08:05:19.386Z,10.09
2022-10-22T08:07:46.316Z,10.10
2022-10-22T08:10:13.568Z,10.10
2022-10-22T08:12:42.163Z,10.06
2022-10-22T08:15:10.184Z,10.05
2022-10-22T08:17:37.092Z,10.09
2022-10-22T08:20:04.761Z,10.11
2022-10-22T08:22:31.599Z,10.14
2022-10-22T08:24:58.415Z,10.16
2022-10-22T08:27:25.175Z,10.19
2022-10-22T08:29:51.982Z,10.19
2022-10-22T08:32:18.847Z,10.19
2022-10-22T08:34:45.637Z,10.20
2022-10-22T08:37:13.226Z,10.19
2022-10-22T08:39:41.277Z,10.20
2022-10-22T08:42:29.758Z,10.22
2022-10-22T08:45:06.767Z,10.24
2022-10-22T08:47:59.946Z,10.27
2022-10-22T08:50:38.646Z,10.30
2022-10-22T08:53:15.571Z,10.29
2022-10-22T08:55:42.649Z,10.29
2022-10-22T08:58:30.411Z,10.33
2022-10-22T09:01:01.792Z,10.34
2022-10-22T09:03:38.338Z,10.33
2022-10-22T09:06:07.845Z,10.37
2022-10-22T09:08:37.315Z,10.37
2022-10-22T09:11:12.497Z,10.38
2022-10-22T09:13:42.539Z,10.40
2022-10-22T09:16:17.981Z,10.40
2022-10-22T09:19:23.049Z,10.41
2022-10-22T09:22:15.181Z,10.43
2022-10-22T09:24:52.470Z,10.42
2022-10-22T09:27:30.638Z,10.47
2022-10-22T09:29:57.776Z,10.52
2022-10-22T09:32:26.390Z,10.54
2022-10-22T09:34:57.033Z,10.53
2022-10-22T09:37:28.153Z,10.57
2022-10-22T09:39:57.428Z,10.59
2022-10-22T09:42:24.825Z,10.60
2022-10-22T09:44:59.761Z,10.62
2022-10-22T09:47:42.954Z,10.66
2022-10-22T09:50:41.569Z,10.70
2022-10-22T09:53:29.077Z,10.72
2022-10-22T09:55:59.062Z,10.77
2022-10-22T09:58:26.787Z,10.78
2022-10-22T10:01:00.054Z,10.75
2022-10-22T10:03:31.866Z,10.75
2022-10-22T10:06:04.796Z,10.78
2022-10-22T10:08:33.661Z,10.81
2022-10-22T10:11:07.836Z,10.90
2022-10-22T10:13:52.880Z,10.86
2022-10-22T10:16:47.665Z,10.90
2022-10-22T10:19:36.060Z,10.91
2022-10-22T10:22:21.331Z,10.94
2022-10-22T10:25:10.286Z,10.92
2022-10-22T10:28:10.725Z,10.94
2022-10-22T10:30:48.719Z,10.96
2022-10-22T10:33:31.466Z,11.01
2022-10-22T10:36:17.656Z,11.03
2022-10-22T10:39:03.553Z,11.06
2022-10-22T10:41:49.022Z,11.08
2022-10-22T10:44:31.987Z,11.12
2022-10-22T10:47:16.194Z,11.15
2022-10-22T10:49:43.714Z,11.19
2022-10-22T10:52:30.812Z,11.23
2022-10-22T10:55:25.316Z,11.27
2022-10-22T10:57:54.846Z,11.30
2022-10-22T11:00:22.498Z,11.37
2022-10-22T11:03:26.747Z,11.40
2022-10-22T11:05:57.978Z,11.43
2022-10-22T11:08:43.972Z,11.47
2022-10-22T11:11:33.132Z,11.56
2022-10-22T11:14:11.449Z,11.64
2022-10-22T11:16:57.779Z,11.69
2022-10-22T11:19:50.112Z,11.70
2022-10-22T11:23:00.245Z,11.81
2022-10-22T11:25:40.861Z,11.93
2022-10-22T11:28:22.762Z,11.95
2022-10-22T11:31:00.358Z,12.08
2022-10-22T11:33:33.229Z,12.06
2022-10-22T11:36:02.955Z,12.14
2022-10-22T11:38:32.813Z,12.22
2022-10-22T11:41:12.321Z,12.25
2022-10-22T11:43:55.561Z,12.37
2022-10-22T11:46:22.382Z,12.38
2022-10-22T11:49:13.770Z,12.50
2022-10-22T11:51:42.430Z,12.75
2022-10-22T11:54:24.191Z,13.39
2022-10-22T11:57:16.334Z,13.97
2022-10-22T11:59:43.082Z,14.24
2022-10-22T12:02:43.780Z,14.46
2022-10-22T12:05:22.874Z,14.60
2022-10-22T12:08:15.918Z,14.71
2022-10-22T12:10:57.622Z,14.86
2022-10-22T12:13:28.076Z,14.92
2022-10-22T12:15:59.304Z,14.99
2022-10-22T12:18:31.498Z,15.01
2022-10-22T12:20:58.432Z,15.02
2022-10-22T12:23:32.154Z,15.07
2022-10-22T12:25:58.923Z,15.06
2022-10-22T12:28:25.746Z,15.08
2022-10-22T12:30:52.507Z,15.12
2022-10-22T12:33:22.185Z,15.11
2022-10-22T12:35:50.700Z,15.11
2022-10-22T12:38:21.361Z,15.10
2022-10-22T12:40:50.537Z,15.13
2022-10-22T12:43:20.317Z,15.12
2022-10-22T12:45:50.487Z,15.11
2022-10-22T12:48:40.260Z,15.14
2022-10-22T12:51:09.155Z,15.14
2022-10-22T12:53:38.488Z,15.09
2022-10-22T12:56:13.410Z,15.12
2022-10-22T12:58:43.468Z,15.10
2022-10-22T13:01:15.883Z,15.13
2022-10-22T13:03:48.697Z,15.13
2022-10-22T13:06:18.706Z,15.11
2022-10-22T13:08:55.566Z,15.11
2022-10-22T13:11:22.555Z,15.12
2022-10-22T13:13:49.330Z,15.09
2022-10-22T13:16:22.717Z,15.12
2022-10-22T13:18:51.402Z,15.13
2022-10-22T13:21:38.621Z,15.14
2022-10-22T13:24:23.350Z,15.13
2022-10-22T13:26:53.143Z,15.11
2022-10-22T13:29:22.607Z,15.08
2022-10-22T13:31:52.271Z,15.05
2022-10-22T13:34:25.066Z,15.01
2022-10-22T13:36:52.201Z,14.96
2022-10-22T13:39:21.872Z,14.95
2022-10-22T13:41:49.774Z,14.95
2022-10-22T13:44:17.900Z,14.94
2022-10-22T13:46:45.833Z,14.94
2022-10-22T13:49:19.032Z,14.93
2022-10-22T13:51:46.808Z,14.92
2022-10-22T13:54:18.043Z,14.88
2022-10-22T13:56:45.893Z,14.92
2022-10-22T13:59:13.131Z,14.91
2022-10-22T14:01:40.752Z,14.91
2022-10-22T14:04:12.562Z,14.89
2022-10-22T14:06:40.073Z,14.87
2022-10-22T14:09:13.896Z,14.86
2022-10-22T14:11:40.995Z,14.87
2022-10-22T14:14:07.895Z,14.84
2022-10-22T14:16:35.285Z,14.84
2022-10-22T14:19:02.794Z,14.80
2022-10-22T14:21:35.106Z,14.80
2022-10-22T14:24:02.166Z,14.79
2022-10-22T14:26:32.138Z,14.78
2022-10-22T14:29:15.422Z,14.83
2022-10-22T14:31:44.592Z,14.81
2022-10-22T14:34:14.408Z,14.87
2022-10-22T14:36:41.810Z,14.86
2022-10-22T14:39:08.936Z,14.88
2022-10-22T14:41:37.170Z,14.90
2022-10-22T14:44:04.296Z,14.87
2022-10-22T14:46:31.179Z,14.87
2022-10-22T14:48:58.337Z,14.89
2022-10-22T14:51:25.271Z,14.88
2022-10-22T14:53:52.209Z,14.87
2022-10-22T14:56:20.118Z,14.85
2022-10-22T14:58:47.350Z,14.88
2022-10-22T15:01:14.393Z,14.87
2022-10-22T15:03:41.352Z,14.89
2022-10-22T15:06:08.190Z,14.91
2022-10-22T15:08:35.185Z,14.92
2022-10-22T15:11:05.386Z,14.92
2022-10-22T15:13:33.054Z,14.90
2022-10-22T15:16:00.491Z,14.90
2022-10-22T15:18:29.074Z,14.91
2022-10-22T15:21:01.483Z,14.89
2022-10-22T15:23:29.254Z,14.89
2022-10-22T15:25:56.866Z,14.90
2022-10-22T15:28:24.569Z,14.89
2022-10-22T15:30:59.733Z,14.92
2022-10-22T15:33:28.626Z,14.92
2022-10-22T15:35:56.771Z,14.92
2022-10-22T15:41:05.291Z,14.91
2022-10-22T15:43:34.841Z,14.90
2022-10-22T15:46:16.797Z,14.89
2022-10-22T15:48:45.063Z,14.94
2022-10-22T15:51:14.949Z,14.91
2022-10-22T15:53:43.055Z,14.96
2022-10-22T15:56:11.268Z,14.99
2022-10-22T15:58:39.021Z,15.03
2022-10-22T16:01:12.501Z,15.01
2022-10-22T16:03:40.239Z,15.03
2022-10-22T16:06:08.508Z,15.06
2022-10-22T16:08:35.450Z,15.06
2022-10-22T16:11:02.549Z,15.13
2022-10-22T16:13:29.430Z,15.11
2022-10-22T16:15:56.470Z,15.13
2022-10-22T16:18:23.811Z,15.15
2022-10-22T16:20:50.692Z,15.13
2022-10-22T16:23:20.023Z,15.16
2022-10-22T16:25:46.955Z,15.17
2022-10-22T16:28:14.246Z,15.12
2022-10-22T16:30:41.257Z,15.12
2022-10-22T16:33:10.082Z,15.11
2022-10-22T16:35:42.503Z,15.12
2022-10-22T16:38:11.303Z,15.13
2022-10-22T16:40:38.412Z,15.09
2022-10-22T16:43:05.739Z,15.11
2022-10-22T16:45:32.972Z,15.11
2022-10-22T16:47:59.874Z,15.08
2022-10-22T16:50:27.238Z,15.08
2022-10-22T16:52:54.695Z,15.07
2022-10-22T16:55:21.845Z,15.01
2022-10-22T16:57:52.344Z,15.01
2022-10-22T17:00:21.252Z,15.00
2022-10-22T17:02:53.981Z,14.97
2022-10-22T17:05:21.846Z,14.95
2022-10-22T17:07:49.847Z,14.94
2022-10-22T17:10:18.888Z,14.95
2022-10-22T17:12:48.016Z,14.94
2022-10-22T17:15:15.878Z,14.95
2022-10-22T17:17:43.225Z,14.99
2022-10-22T17:20:12.179Z,14.98
2022-10-22T17:22:40.048Z,14.96
2022-10-22T17:25:25.803Z,14.99
2022-10-22T17:27:53.974Z,14.94
2022-10-22T17:30:24.985Z,14.92
2022-10-22T17:32:55.696Z,14.92
2022-10-22T17:35:23.293Z,14.92
2022-10-22T17:37:52.351Z,14.89
2022-10-22T17:40:21.875Z,14.85
2022-10-22T17:42:49.380Z,14.87
2022-10-22T17:45:17.262Z,14.84
2022-10-22T17:47:45.080Z,14.85
2022-10-22T17:50:12.742Z,14.80
2022-10-22T17:52:40.456Z,14.79
2022-10-22T17:55:12.873Z,14.78
2022-10-22T17:57:40.934Z,14.76
2022-10-22T18:00:10.206Z,14.77
2022-10-22T18:02:37.873Z,14.78
2022-10-22T18:05:05.523Z,14.75
2022-10-22T18:07:32.651Z,14.76
2022-10-22T18:09:59.923Z,14.76
2022-10-22T18:12:27.221Z,14.74
2022-10-22T18:14:57.123Z,14.73
2022-10-22T18:17:26.760Z,14.73
2022-10-22T18:19:55.623Z,14.71
2022-10-22T18:22:23.324Z,14.72
2022-10-22T18:24:50.844Z,14.72
2022-10-22T18:27:19.722Z,14.71
2022-10-22T18:29:50.385Z,14.72
2022-10-22T18:32:18.949Z,14.71
2022-10-22T18:34:46.379Z,14.73
2022-10-22T18:37:13.919Z,14.74
2022-10-22T18:39:43.465Z,14.68
2022-10-22T18:42:11.258Z,14.67
2022-10-22T18:44:38.619Z,14.66
2022-10-22T18:47:07.118Z,14.66
2022-10-22T18:49:34.950Z,14.64
2022-10-22T18:52:03.186Z,14.63
2022-10-22T18:54:31.136Z,14.61
2022-10-22T18:57:02.571Z,14.57
2022-10-22T18:59:31.227Z,14.61
2022-10-22T19:01:59.005Z,14.61
2022-10-22T19:04:29.298Z,14.63
2022-10-22T19:06:57.291Z,14.62
2022-10-22T19:09:26.499Z,14.58
2022-10-22T19:11:53.997Z,14.59
2022-10-22T19:14:21.046Z,14.56
2022-10-22T19:16:49.095Z,14.57
2022-10-22T19:19:19.485Z,14.57
2022-10-22T19:21:47.197Z,14.51
2022-10-22T19:24:16.999Z,14.51
2022-10-22T19:26:45.727Z,14.51
2022-10-22T19:29:16.321Z,14.52
2022-10-22T19:31:43.934Z,14.49
2022-10-22T19:34:12.149Z,14.48
2022-10-22T19:36:39.975Z,14.47
2022-10-22T19:39:07.391Z,14.48
2022-10-22T19:41:35.261Z,14.49
2022-10-22T19:44:02.905Z,14.46
2022-10-22T19:46:32.112Z,14.48
2022-10-22T19:49:00.098Z,14.50
2022-10-22T19:51:30.083Z,14.51
2022-10-22T19:54:06.514Z,14.52
2022-10-22T19:56:35.859Z,14.52
2022-10-22T19:59:05.000Z,14.54
2022-10-22T20:01:32.405Z,14.52
2022-10-22T20:03:59.453Z,14.52
2022-10-22T20:06:27.329Z,14.51
2022-10-22T20:08:56.159Z,14.51
2022-10-22T20:11:27.692Z,14.46
2022-10-22T20:13:56.134Z,14.50
2022-10-22T20:16:25.723Z,14.47
2022-10-22T20:18:52.905Z,14.48
2022-10-22T20:21:20.497Z,14.49
2022-10-22T20:23:53.466Z,14.49
2022-10-22T20:26:21.534Z,14.49
2022-10-22T20:28:48.655Z,14.48
2022-10-22T20:31:19.283Z,14.48
2022-10-22T20:33:47.873Z,14.47
2022-10-22T20:36:21.024Z,14.47
2022-10-22T20:38:48.319Z,14.46
2022-10-22T20:41:22.265Z,14.42
2022-10-22T20:43:51.706Z,14.44
2022-10-22T20:46:26.202Z,14.40
2022-10-22T20:48:58.532Z,14.37
2022-10-22T20:51:25.963Z,14.40
2022-10-22T20:53:53.318Z,14.40
2022-10-22T20:56:21.306Z,14.37
2022-10-22T20:58:50.113Z,14.35
2022-10-22T21:01:21.842Z,14.38
2022-10-22T21:03:51.423Z,14.40
2022-10-22T21:06:20.230Z,14.38
2022-10-22T21:08:47.161Z,14.36
2022-10-22T21:11:14.166Z,14.35
2022-10-22T21:13:41.036Z,14.35
2022-10-22T21:16:10.688Z,14.31
2022-10-22T21:18:37.835Z,14.29
2022-10-22T21:21:06.147Z,14.23
2022-10-22T21:23:35.316Z,14.22
2022-10-22T21:26:02.470Z,14.19
2022-10-22T21:30:57.416Z,14.14
2022-10-22T21:33:24.299Z,14.13
2022-10-22T21:35:53.220Z,14.13
2022-10-22T21:38:20.848Z,14.12
2022-10-22T21:40:47.858Z,14.13
2022-10-22T21:43:15.786Z,14.14
2022-10-22T21:45:43.129Z,14.11
2022-10-22T21:48:11.608Z,14.09
2022-10-22T21:50:40.236Z,14.07
2022-10-22T21:53:09.248Z,14.07
2022-10-22T21:55:40.692Z,14.11
2022-10-22T21:58:14.646Z,14.08
2022-10-22T22:00:54.356Z,14.06
2022-10-22T22:03:21.390Z,14.06
2022-10-22T22:05:48.383Z,14.04
2022-10-22T22:08:15.781Z,14.02
2022-10-22T22:10:43.287Z,13.97
2022-10-22T22:13:10.241Z,13.96
2022-10-22T22:15:37.040Z,13.88
2022-10-22T22:18:04.062Z,13.90
2022-10-22T22:20:30.863Z,13.86
2022-10-22T22:22:57.781Z,13.86
2022-10-22T22:25:24.503Z,13.84
2022-10-22T22:27:51.515Z,13.86
2022-10-22T22:30:18.234Z,13.84
2022-10-22T22:32:45.013Z,13.87
2022-10-22T22:35:11.832Z,13.87
2022-10-22T22:37:38.843Z,13.85
2022-10-22T22:40:06.423Z,13.85
2022-10-22T22:42:33.314Z,13.89
2022-10-22T22:45:00.114Z,13.88
2022-10-22T22:47:26.896Z,13.89
2022-10-22T22:49:53.806Z,13.87
2022-10-22T22:54:52.525Z,13.89
2022-10-22T22:57:19.256Z,13.85
2022-10-22T22:59:49.406Z,13.82
2022-10-22T23:02:16.374Z,13.82
2022-10-22T23:04:43.285Z,13.81
2022-10-22T23:07:10.467Z,13.80
2022-10-22T23:09:37.306Z,13.81
2022-10-22T23:12:04.307Z,13.83
2022-10-22T23:14:31.227Z,13.66
2022-10-22T23:16:57.973Z,13.44
2022-10-22T23:19:24.754Z,13.30
2022-10-22T23:21:54.392Z,13.12
2022-10-22T23:24:24.377Z,13.14
2022-10-22T23:26:53.357Z,13.04
2022-10-22T23:29:26.438Z,12.98
2022-10-22T23:31:54.535Z,12.92
2022-10-22T23:34:24.917Z,12.90
2022-10-22T23:36:52.001Z,12.81
2022-10-22T23:39:22.512Z,12.63
2022-10-22T23:41:49.610Z,12.62
2022-10-22T23:44:16.491Z,12.45
2022-10-22T23:46:43.788Z,12.56
2022-10-22T23:49:11.750Z,12.38
2022-10-22T23:51:40.091Z,12.14
2022-10-22T23:54:10.701Z,12.09
2022-10-22T23:56:38.340Z,12.10
2022-10-22T23:59:05.896Z,12.17
